createdAt,value
2023-04-15T00:00:49.874Z,57.70
2023-04-15T00:03:18.063Z,58.10
2023-04-15T00:05:48.207Z,59.20
2023-04-15T00:08:15.660Z,59.90
2023-04-15T00:11:02.936Z,60.30
2023-04-15T00:13:30.658Z,61.10
2023-04-15T00:15:58.958Z,61.30
2023-04-15T00:18:27.312Z,61.30
2023-04-15T00:20:54.566Z,61.20
2023-04-15T00:23:21.669Z,61.20
2023-04-15T00:25:48.662Z,61.90
2023-04-15T00:28:15.694Z,61.30
2023-04-15T00:30:42.856Z,61.30
2023-04-15T00:33:10.835Z,61.20
2023-04-15T00:35:38.030Z,61.20
2023-04-15T00:38:06.134Z,61.30
2023-04-15T00:40:33.565Z,61.40
2023-04-15T00:43:00.723Z,61.70
2023-04-15T00:45:28.461Z,61.80
2023-04-15T00:47:56.152Z,61.80
2023-04-15T00:50:24.431Z,61.80
2023-04-15T00:52:52.102Z,61.70
2023-04-15T00:55:19.557Z,61.90
2023-04-15T00:57:46.866Z,62.40
2023-04-15T01:00:14.261Z,62.60
2023-04-15T01:02:41.644Z,62.80
2023-04-15T01:05:09.916Z,62.70
2023-04-15T01:07:38.180Z,62.70
2023-04-15T01:10:05.716Z,62.70
2023-04-15T01:12:33.441Z,62.60
2023-04-15T01:15:00.954Z,62.50
2023-04-15T01:17:28.628Z,62.10
2023-04-15T01:19:58.124Z,62.30
2023-04-15T01:22:26.917Z,62.40
2023-04-15T01:25:08.679Z,62.60
2023-04-15T01:27:36.521Z,62.90
2023-04-15T01:30:05.626Z,62.60
2023-04-15T01:32:32.701Z,62.60
2023-04-15T01:34:59.862Z,62.40
2023-04-15T01:37:27.754Z,62.40
2023-04-15T01:39:54.889Z,62.70
2023-04-15T01:42:22.721Z,62.70
2023-04-15T01:44:49.944Z,62.70
2023-04-15T01:47:17.262Z,62.50
2023-04-15T01:49:44.421Z,62.40
2023-04-15T01:52:11.557Z,62.40
2023-04-15T01:54:38.970Z,62.20
2023-04-15T01:57:06.565Z,62.10
2023-04-15T01:59:33.697Z,62.20
2023-04-15T02:02:01.578Z,62.00
2023-04-15T02:04:29.157Z,62.00
2023-04-15T02:06:57.214Z,61.90
2023-04-15T02:09:24.298Z,61.90
2023-04-15T02:11:53.187Z,62.40
2023-04-15T02:14:20.387Z,62.90
2023-04-15T02:16:47.420Z,63.00
2023-04-15T02:19:15.585Z,62.60
2023-04-15T02:21:42.665Z,63.00
2023-04-15T02:24:09.717Z,63.20
2023-04-15T02:26:37.042Z,63.10
2023-04-15T02:29:04.285Z,62.80
2023-04-15T02:31:34.277Z,62.40
2023-04-15T02:34:04.524Z,62.10
2023-04-15T02:36:32.119Z,61.90
2023-04-15T02:38:59.615Z,61.50
2023-04-15T02:41:28.671Z,61.30
2023-04-15T02:43:56.004Z,61.50
2023-04-15T02:46:23.356Z,61.60
2023-04-15T02:48:50.786Z,61.50
2023-04-15T02:51:23.977Z,61.60
2023-04-15T02:53:51.183Z,61.50
2023-04-15T02:56:19.615Z,61.10
2023-04-15T02:58:46.860Z,61.70
2023-04-15T03:01:14.136Z,62.50
2023-04-15T03:03:41.630Z,63.70
2023-04-15T03:06:09.256Z,63.90
2023-04-15T03:08:36.792Z,64.00
2023-04-15T03:11:04.275Z,64.20
2023-04-15T03:13:31.479Z,64.20
2023-04-15T03:15:58.707Z,64.10
2023-04-15T03:18:26.055Z,64.40
2023-04-15T03:20:53.271Z,64.40
2023-04-15T03:23:20.265Z,64.10
2023-04-15T03:25:47.401Z,64.60
2023-04-15T03:28:14.570Z,64.80
2023-04-15T03:30:41.984Z,64.60
2023-04-15T03:33:09.274Z,64.20
2023-04-15T03:35:36.445Z,64.10
2023-04-15T03:38:03.445Z,64.30
2023-04-15T03:40:30.672Z,64.40
2023-04-15T03:42:57.726Z,64.00
2023-04-15T03:45:24.892Z,63.50
2023-04-15T03:47:52.025Z,63.00
2023-04-15T03:50:19.192Z,62.70
2023-04-15T03:52:46.749Z,62.50
2023-04-15T03:55:14.671Z,62.30
2023-04-15T03:57:42.080Z,62.80
2023-04-15T04:00:10.718Z,62.30
2023-04-15T04:02:40.964Z,62.50
2023-04-15T04:05:09.822Z,62.60
2023-04-15T04:07:36.984Z,63.00
2023-04-15T04:10:04.479Z,63.00
2023-04-15T04:12:31.829Z,63.50
2023-04-15T04:14:58.914Z,63.50
2023-04-15T04:17:25.987Z,63.40
2023-04-15T04:19:54.123Z,63.90
2023-04-15T04:22:26.649Z,64.00
2023-04-15T04:24:53.785Z,64.00
2023-04-15T04:27:21.037Z,63.50
2023-04-15T04:29:50.072Z,63.20
2023-04-15T04:32:17.230Z,62.90
2023-04-15T04:34:44.503Z,63.10
2023-04-15T04:37:12.203Z,63.40
2023-04-15T04:39:42.388Z,63.90
2023-04-15T04:42:09.532Z,63.60
2023-04-15T04:44:36.689Z,63.10
2023-04-15T04:47:03.760Z,62.80
2023-04-15T04:49:31.295Z,62.60
2023-04-15T04:51:58.587Z,61.80
2023-04-15T04:54:26.655Z,61.70
2023-04-15T04:56:53.866Z,61.70
2023-04-15T04:59:20.967Z,61.80
2023-04-15T05:01:48.310Z,62.20
2023-04-15T05:04:15.924Z,62.40
2023-04-15T05:06:43.148Z,62.30
2023-04-15T05:09:10.331Z,62.00
2023-04-15T05:11:37.828Z,62.00
2023-04-15T05:14:06.214Z,62.20
2023-04-15T05:16:33.226Z,62.50
2023-04-15T05:19:00.619Z,62.10
2023-04-15T05:21:27.952Z,61.90
2023-04-15T05:23:55.102Z,61.70
2023-04-15T05:26:22.702Z,61.40
2023-04-15T05:28:51.090Z,61.10
2023-04-15T05:31:18.405Z,61.50
2023-04-15T05:33:47.259Z,60.50
2023-04-15T05:36:14.486Z,60.00
2023-04-15T05:38:42.314Z,59.50
2023-04-15T05:41:09.789Z,59.00
2023-04-15T05:43:37.416Z,58.60
2023-04-15T05:46:04.715Z,58.60
2023-04-15T05:48:32.076Z,58.40
2023-04-15T05:50:59.555Z,58.00
2023-04-15T05:53:26.889Z,58.30
2023-04-15T05:55:54.001Z,58.50
2023-04-15T05:58:21.271Z,58.40
2023-04-15T06:00:48.928Z,58.60
2023-04-15T06:03:17.043Z,59.20
2023-04-15T06:05:45.712Z,59.00
2023-04-15T06:08:13.472Z,58.50
2023-04-15T06:10:43.731Z,58.00
2023-04-15T06:13:11.520Z,57.90
2023-04-15T06:15:38.793Z,57.70
2023-04-15T06:18:07.116Z,57.60
2023-04-15T06:20:34.680Z,57.20
2023-04-15T06:23:01.937Z,57.10
2023-04-15T06:25:32.437Z,56.90
2023-04-15T06:28:00.951Z,56.70
2023-04-15T06:30:30.542Z,55.50
2023-04-15T06:32:58.263Z,55.60
2023-04-15T06:35:29.342Z,54.30
2023-04-15T06:37:58.592Z,53.00
2023-04-15T06:40:26.397Z,52.40
2023-04-15T06:42:53.671Z,52.10
2023-04-15T06:45:20.776Z,51.90
2023-04-15T06:47:51.788Z,52.10
2023-04-15T06:50:22.744Z,51.80
2023-04-15T06:52:50.476Z,51.50
2023-04-15T06:55:18.108Z,50.60
2023-04-15T07:00:29.386Z,49.30
2023-04-15T07:03:00.821Z,48.80
2023-04-15T07:05:29.926Z,48.20
2023-04-15T07:07:58.219Z,47.70
2023-04-15T07:10:26.253Z,47.80
2023-04-15T07:12:57.565Z,46.30
2023-04-15T07:15:25.429Z,45.90
2023-04-15T07:17:55.644Z,44.90
2023-04-15T07:20:24.308Z,43.90
2023-04-15T07:33:50.068Z,41.90
2023-04-15T07:36:20.332Z,41.70
2023-04-15T07:38:48.479Z,41.40
2023-04-15T07:41:16.421Z,41.30
2023-04-15T07:43:43.853Z,41.30
2023-04-15T07:46:11.348Z,41.70
2023-04-15T07:48:38.561Z,41.40
2023-04-15T07:51:06.268Z,41.00
2023-04-15T07:53:33.833Z,41.70
2023-04-15T07:56:00.894Z,41.80
2023-04-15T07:58:28.257Z,41.80
2023-04-15T08:00:55.422Z,41.70
2023-04-15T08:03:23.917Z,41.60
2023-04-15T08:05:51.465Z,41.00
2023-04-15T08:08:20.404Z,40.20
2023-04-15T08:19:10.826Z,41.10
2023-04-15T08:21:42.946Z,40.30
2023-04-15T08:24:21.847Z,40.20
2023-04-15T09:03:24.120Z,37.00
2023-04-15T09:11:27.389Z,35.10
2023-04-15T09:13:58.375Z,34.40
2023-04-15T09:19:34.227Z,32.90
2023-04-15T09:22:05.643Z,33.50
2023-04-15T09:24:40.551Z,31.80
2023-04-15T09:27:11.360Z,32.40
2023-04-15T09:29:39.587Z,32.20
2023-04-15T09:34:58.657Z,31.20
2023-04-15T09:37:44.076Z,30.80
2023-04-15T09:48:22.433Z,30.00
2023-04-15T09:53:39.677Z,30.20
2023-04-15T09:56:27.359Z,30.90
2023-04-15T09:59:03.084Z,31.70
2023-04-15T10:15:24.048Z,31.30
2023-04-15T10:17:57.271Z,32.40
2023-04-15T10:25:59.545Z,32.30
2023-04-15T10:28:28.224Z,31.00
2023-04-15T10:30:55.921Z,31.70
2023-04-15T10:33:26.031Z,31.10
2023-04-15T10:35:56.981Z,29.70
2023-04-15T10:38:45.828Z,28.40
2023-04-15T10:41:33.999Z,28.30
2023-04-15T10:46:46.204Z,28.10
2023-04-15T10:49:43.031Z,27.70
2023-04-15T10:52:12.341Z,28.00
2023-04-15T10:54:51.806Z,27.90
2023-04-15T11:00:10.210Z,28.80
2023-04-15T11:05:40.478Z,28.40
2023-04-15T11:08:18.605Z,29.50
2023-04-15T11:10:46.492Z,29.80
2023-04-15T11:13:23.167Z,29.90
2023-04-15T11:15:53.028Z,29.70
2023-04-15T11:18:40.524Z,30.20
2023-04-15T11:33:10.517Z,29.00
2023-04-15T11:35:39.336Z,28.90
2023-04-15T11:38:10.637Z,29.00
2023-04-15T11:40:41.154Z,29.40
2023-04-15T11:43:22.492Z,30.00
2023-04-15T11:45:58.821Z,30.60
2023-04-15T11:51:35.201Z,31.40
2023-04-15T11:54:02.995Z,32.30
2023-04-15T12:05:07.517Z,33.50
2023-04-15T12:10:27.500Z,33.50
2023-04-15T12:12:57.324Z,33.60
2023-04-15T12:21:23.195Z,34.30
2023-04-15T12:23:59.829Z,34.30
2023-04-15T12:26:29.876Z,34.90
2023-04-15T12:29:12.005Z,35.10
2023-04-15T12:31:49.793Z,35.70
2023-04-15T12:34:20.257Z,37.80
2023-04-15T12:36:49.440Z,36.80
2023-04-15T12:39:25.652Z,36.50
2023-04-15T12:58:30.480Z,32.10
2023-04-15T13:00:57.873Z,32.70
2023-04-15T13:03:40.840Z,32.80
2023-04-15T13:06:10.794Z,33.90
2023-04-15T13:14:48.489Z,31.10
2023-04-15T13:20:41.401Z,31.00
2023-04-15T13:50:26.856Z,32.90
2023-04-15T13:53:01.007Z,33.10
2023-04-15T13:55:31.829Z,34.00
2023-04-15T13:58:01.348Z,34.20
2023-04-15T14:00:31.330Z,34.40
2023-04-15T14:02:59.162Z,34.60
2023-04-15T14:05:35.687Z,33.90
2023-04-15T14:08:05.081Z,33.00
2023-04-15T14:10:35.692Z,32.60
2023-04-15T14:13:13.629Z,32.40
2023-04-15T14:15:47.747Z,32.40
2023-04-15T14:18:37.623Z,32.30
2023-04-15T14:21:42.756Z,33.10
2023-04-15T14:24:27.575Z,32.30
2023-04-15T14:27:01.533Z,32.60
2023-04-15T14:29:41.353Z,31.90
2023-04-15T14:32:12.653Z,31.90
2023-04-15T14:34:45.788Z,31.70
2023-04-15T14:37:15.460Z,32.70
2023-04-15T14:39:42.616Z,32.80
2023-04-15T14:42:12.192Z,33.30
2023-04-15T14:44:39.518Z,33.70
2023-04-15T14:47:06.785Z,33.00
2023-04-15T14:49:34.191Z,31.90
2023-04-15T14:52:06.171Z,33.10
2023-04-15T14:54:33.704Z,32.80
2023-04-15T14:57:02.323Z,33.10
2023-04-15T14:59:29.913Z,32.90
2023-04-15T15:01:58.767Z,32.70
2023-04-15T15:04:34.030Z,32.90
2023-04-15T15:07:02.568Z,33.20
2023-04-15T15:09:36.320Z,33.20
2023-04-15T15:12:05.470Z,33.50
2023-04-15T15:14:35.554Z,34.00
2023-04-15T15:17:23.916Z,34.10
2023-04-15T15:19:51.458Z,34.00
2023-04-15T15:23:08.086Z,34.20
2023-04-15T15:29:18.546Z,34.00
2023-04-15T15:37:49.959Z,33.60
2023-04-15T15:40:17.283Z,34.60
2023-04-15T15:56:45.064Z,38.20
2023-04-15T15:59:13.071Z,37.50
2023-04-15T16:01:52.208Z,37.80
2023-04-15T16:04:22.135Z,37.90
2023-04-15T16:06:49.851Z,38.00
2023-04-15T16:12:14.698Z,38.50
2023-04-15T16:14:55.331Z,38.90
2023-04-15T16:17:27.025Z,38.90
2023-04-15T16:19:57.682Z,38.40
2023-04-15T16:22:41.567Z,38.80
2023-04-15T16:25:19.174Z,39.10
2023-04-15T16:27:58.827Z,39.70
2023-04-15T16:33:14.001Z,39.20
2023-04-15T16:35:47.292Z,38.90
2023-04-15T16:38:18.421Z,39.20
2023-04-15T16:46:12.115Z,39.40
2023-04-15T16:48:41.225Z,39.20
2023-04-15T16:51:08.874Z,39.40
2023-04-15T16:56:22.932Z,40.00
2023-04-15T16:58:54.773Z,39.90
2023-04-15T17:01:24.097Z,39.90
2023-04-15T17:03:54.688Z,39.70
2023-04-15T17:45:39.934Z,44.70
2023-04-15T17:48:07.335Z,44.80
2023-04-15T17:50:39.320Z,44.40
2023-04-15T17:53:11.451Z,44.60
2023-04-15T17:55:45.644Z,44.00
2023-04-15T17:58:15.322Z,44.20
2023-04-15T18:00:47.136Z,44.20
2023-04-15T18:03:15.236Z,44.40
2023-04-15T18:05:45.516Z,44.50
2023-04-15T18:08:20.640Z,44.90
2023-04-15T18:10:48.287Z,45.40
2023-04-15T18:13:23.046Z,45.50
2023-04-15T18:15:51.516Z,45.50
2023-04-15T18:18:19.790Z,45.50
2023-04-15T18:20:50.287Z,45.80
2023-04-15T18:23:17.935Z,46.50
2023-04-15T18:25:45.491Z,46.90
2023-04-15T18:28:12.698Z,46.90
2023-04-15T18:30:40.436Z,46.70
2023-04-15T18:33:09.939Z,46.20
2023-04-15T18:35:37.683Z,46.50
2023-04-15T18:38:14.546Z,46.90
2023-04-15T18:40:42.018Z,47.30
2023-04-15T18:43:11.917Z,47.60
2023-04-15T18:45:45.288Z,47.70
2023-04-15T18:48:16.096Z,47.80
2023-04-15T18:50:48.297Z,47.60
2023-04-15T18:53:25.778Z,47.20
2023-04-15T18:59:10.024Z,47.40
2023-04-15T19:04:21.026Z,47.60
2023-04-15T19:06:48.672Z,47.90
2023-04-15T19:09:17.617Z,47.80
2023-04-15T19:11:45.729Z,48.20
2023-04-15T19:14:14.863Z,48.10
2023-04-15T19:16:42.903Z,48.00
2023-04-15T19:19:16.399Z,48.30
2023-04-15T19:21:43.739Z,48.60
2023-04-15T19:24:13.588Z,47.80
2023-04-15T19:26:41.857Z,47.60
2023-04-15T19:29:11.559Z,47.80
2023-04-15T19:31:46.818Z,48.20
2023-04-15T19:34:25.897Z,47.60
2023-04-15T19:39:50.218Z,45.90
2023-04-15T19:42:23.383Z,45.20
2023-04-15T19:44:53.163Z,45.10
2023-04-15T19:47:20.618Z,45.00
2023-04-15T19:49:47.780Z,45.20
2023-04-15T19:52:15.489Z,44.80
2023-04-15T19:54:46.396Z,44.60
2023-04-15T19:57:24.521Z,45.10
2023-04-15T19:59:54.557Z,45.40
2023-04-15T20:02:27.172Z,46.20
2023-04-15T20:08:01.804Z,47.50
2023-04-15T20:10:32.774Z,48.30
2023-04-15T20:13:08.468Z,46.40
2023-04-15T20:15:40.304Z,46.70
2023-04-15T20:18:08.886Z,47.40
2023-04-15T20:20:36.593Z,48.10
2023-04-15T20:23:03.726Z,47.80
2023-04-15T20:25:31.213Z,47.70
2023-04-15T20:28:00.994Z,46.10
2023-04-15T20:30:29.564Z,45.10
2023-04-15T20:33:04.774Z,46.00
2023-04-15T20:35:34.231Z,46.70
2023-04-15T20:38:05.762Z,46.30
2023-04-15T20:40:46.933Z,47.60
2023-04-15T20:43:17.091Z,49.00
2023-04-15T20:45:51.667Z,49.70
2023-04-15T20:48:47.252Z,49.70
2023-04-15T20:51:15.427Z,49.30
2023-04-15T20:53:43.834Z,49.60
2023-04-15T20:56:11.559Z,49.70
2023-04-15T20:58:40.154Z,50.00
2023-04-15T21:01:14.332Z,50.10
2023-04-15T21:03:42.834Z,48.90
2023-04-15T21:06:31.746Z,47.50
2023-04-15T21:09:09.384Z,47.40
2023-04-15T21:14:19.259Z,48.00
2023-04-15T21:16:47.157Z,48.30
2023-04-15T21:19:15.333Z,49.20
2023-04-15T21:24:31.616Z,47.60
2023-04-15T21:26:59.705Z,47.90
2023-04-15T21:32:18.294Z,50.00
2023-04-15T21:34:50.398Z,50.60
2023-04-15T21:37:22.409Z,50.40
2023-04-15T21:39:50.422Z,50.60
2023-04-15T21:42:17.987Z,50.10
2023-04-15T21:44:47.401Z,49.90
2023-04-15T21:47:17.813Z,50.20
2023-04-15T21:49:46.653Z,50.20
2023-04-15T21:52:14.861Z,49.80
2023-04-15T21:54:46.512Z,49.20
2023-04-15T21:57:15.883Z,49.10
2023-04-15T21:59:43.670Z,49.20
2023-04-15T22:02:11.262Z,49.30
2023-04-15T22:04:38.835Z,49.40
2023-04-15T22:07:06.442Z,49.50
2023-04-15T22:09:41.359Z,49.70
2023-04-15T22:12:08.740Z,50.20
2023-04-15T22:14:37.681Z,50.20
2023-04-15T22:17:07.038Z,50.40
2023-04-15T22:19:34.874Z,50.80
2023-04-15T22:22:05.950Z,51.10
2023-04-15T22:24:42.727Z,51.60
2023-04-15T22:27:12.717Z,50.70
2023-04-15T22:29:40.741Z,50.60
2023-04-15T22:32:09.077Z,50.50
2023-04-15T22:34:40.091Z,51.10
2023-04-15T22:37:12.276Z,51.40
2023-04-15T22:39:39.738Z,52.30
2023-04-15T22:42:08.202Z,51.50
2023-04-15T22:44:36.006Z,51.60
2023-04-15T22:47:03.515Z,51.60
2023-04-15T22:49:31.331Z,51.80
2023-04-15T22:52:12.296Z,51.90
2023-04-15T23:00:20.796Z,52.20
2023-04-15T23:02:56.891Z,52.50
2023-04-15T23:05:27.671Z,52.60
2023-04-15T23:10:38.722Z,52.90
2023-04-15T23:13:07.213Z,53.10
2023-04-15T23:15:34.845Z,53.00
2023-04-15T23:18:12.171Z,53.00
2023-04-15T23:20:40.676Z,53.20
2023-04-15T23:23:09.598Z,53.50
2023-04-15T23:25:37.446Z,53.70
2023-04-15T23:28:06.995Z,54.10
2023-04-15T23:30:34.698Z,54.30
2023-04-15T23:33:02.248Z,54.80
2023-04-15T23:35:30.032Z,55.00
2023-04-15T23:38:00.472Z,54.90
2023-04-15T23:40:27.974Z,55.00
2023-04-15T23:42:55.122Z,55.20
2023-04-15T23:45:23.048Z,55.10
2023-04-15T23:47:51.112Z,55.40
2023-04-15T23:50:20.436Z,55.60
2023-04-15T23:52:47.916Z,55.50
2023-04-15T23:55:15.702Z,55.30
2023-04-15T23:57:43.827Z,55.50
